sensor_id;sensor_type;location;lat;lon;timestamp;P1;durP1;ratioP1;P2;durP2;ratioP2
8480;SDS011;4277;51.354;6.740;2024-03-07T00:02:04;37.20;;;25.23;;
8480;SDS011;4277;51.354;6.740;2024-03-07T00:04:30;37.30;;;25.07;;
8480;SDS011;4277;51.354;6.740;2024-03-07T00:06:56;38.63;;;25.20;;
8480;SDS011;4277;51.354;6.740;2024-03-07T00:09:22;38.30;;;24.33;;
8480;SDS011;4277;51.354;6.740;2024-03-07T00:11:49;39.63;;;25.50;;
8480;SDS011;4277;51.354;6.740;2024-03-07T00:14:15;41.20;;;26.03;;
8480;SDS011;4277;51.354;6.740;2024-03-07T00:16:41;40.10;;;24.93;;
8480;SDS011;4277;51.354;6.740;2024-03-07T00:19:07;38.67;;;25.30;;
8480;SDS011;4277;51.354;6.740;2024-03-07T00:21:33;36.50;;;23.80;;
8480;SDS011;4277;51.354;6.740;2024-03-07T00:23:59;39.63;;;24.83;;
8480;SDS011;4277;51.354;6.740;2024-03-07T00:26:25;38.57;;;25.00;;
8480;SDS011;4277;51.354;6.740;2024-03-07T00:28:51;39.80;;;25.03;;
8480;SDS011;4277;51.354;6.740;2024-03-07T00:31:17;35.03;;;22.70;;
8480;SDS011;4277;51.354;6.740;2024-03-07T00:33:44;40.10;;;23.37;;
8480;SDS011;4277;51.354;6.740;2024-03-07T00:36:10;34.93;;;22.63;;
8480;SDS011;4277;51.354;6.740;2024-03-07T00:38:37;41.10;;;26.30;;
8480;SDS011;4277;51.354;6.740;2024-03-07T00:41:03;39.03;;;23.57;;
8480;SDS011;4277;51.354;6.740;2024-03-07T00:43:29;39.23;;;24.47;;
8480;SDS011;4277;51.354;6.740;2024-03-07T00:45:55;38.57;;;22.20;;
8480;SDS011;4277;51.354;6.740;2024-03-07T00:48:21;35.40;;;21.83;;
8480;SDS011;4277;51.354;6.740;2024-03-07T00:50:49;37.77;;;23.10;;
8480;SDS011;4277;51.354;6.740;2024-03-07T00:53:15;35.97;;;22.30;;
8480;SDS011;4277;51.354;6.740;2024-03-07T00:55:41;39.37;;;23.93;;
8480;SDS011;4277;51.354;6.740;2024-03-07T00:58:07;35.60;;;22.93;;
8480;SDS011;4277;51.354;6.740;2024-03-07T01:00:33;38.83;;;23.13;;
8480;SDS011;4277;51.354;6.740;2024-03-07T01:02:59;39.57;;;23.73;;
8480;SDS011;4277;51.354;6.740;2024-03-07T01:05:26;40.27;;;23.97;;
8480;SDS011;4277;51.354;6.740;2024-03-07T01:07:52;38.10;;;24.40;;
8480;SDS011;4277;51.354;6.740;2024-03-07T01:10:18;43.97;;;25.87;;
8480;SDS011;4277;51.354;6.740;2024-03-07T01:12:44;43.53;;;25.70;;
8480;SDS011;4277;51.354;6.740;2024-03-07T01:15:10;41.13;;;24.67;;
8480;SDS011;4277;51.354;6.740;2024-03-07T01:17:36;42.17;;;25.63;;
8480;SDS011;4277;51.354;6.740;2024-03-07T01:20:02;39.50;;;23.87;;
8480;SDS011;4277;51.354;6.740;2024-03-07T01:22:29;44.17;;;25.23;;
8480;SDS011;4277;51.354;6.740;2024-03-07T01:24:55;39.87;;;25.30;;
8480;SDS011;4277;51.354;6.740;2024-03-07T01:27:21;41.37;;;24.63;;
8480;SDS011;4277;51.354;6.740;2024-03-07T01:29:49;44.63;;;24.97;;
8480;SDS011;4277;51.354;6.740;2024-03-07T01:32:15;51.03;;;28.10;;
8480;SDS011;4277;51.354;6.740;2024-03-07T01:34:41;56.07;;;30.03;;
8480;SDS011;4277;51.354;6.740;2024-03-07T01:37:07;50.53;;;28.80;;
8480;SDS011;4277;51.354;6.740;2024-03-07T01:39:33;52.33;;;30.73;;
8480;SDS011;4277;51.354;6.740;2024-03-07T01:41:59;56.80;;;33.20;;
8480;SDS011;4277;51.354;6.740;2024-03-07T01:44:25;58.97;;;34.00;;
8480;SDS011;4277;51.354;6.740;2024-03-07T01:46:51;59.03;;;33.20;;
8480;SDS011;4277;51.354;6.740;2024-03-07T01:49:17;56.73;;;32.93;;
8480;SDS011;4277;51.354;6.740;2024-03-07T01:51:43;60.00;;;33.83;;
8480;SDS011;4277;51.354;6.740;2024-03-07T01:54:09;61.67;;;34.00;;
8480;SDS011;4277;51.354;6.740;2024-03-07T01:56:35;59.60;;;34.10;;
8480;SDS011;4277;51.354;6.740;2024-03-07T01:59:02;57.70;;;32.20;;
8480;SDS011;4277;51.354;6.740;2024-03-07T02:01:30;59.67;;;32.53;;
8480;SDS011;4277;51.354;6.740;2024-03-07T02:03:56;57.50;;;32.77;;
8480;SDS011;4277;51.354;6.740;2024-03-07T02:06:23;67.57;;;34.67;;
8480;SDS011;4277;51.354;6.740;2024-03-07T02:08:49;58.20;;;32.77;;
8480;SDS011;4277;51.354;6.740;2024-03-07T02:11:15;67.00;;;35.80;;
8480;SDS011;4277;51.354;6.740;2024-03-07T02:13:41;58.40;;;32.97;;
8480;SDS011;4277;51.354;6.740;2024-03-07T02:16:06;65.87;;;36.07;;
8480;SDS011;4277;51.354;6.740;2024-03-07T02:18:33;57.97;;;33.33;;
8480;SDS011;4277;51.354;6.740;2024-03-07T02:20:59;60.77;;;34.30;;
8480;SDS011;4277;51.354;6.740;2024-03-07T02:23:25;63.10;;;34.47;;
8480;SDS011;4277;51.354;6.740;2024-03-07T02:25:52;65.60;;;35.37;;
8480;SDS011;4277;51.354;6.740;2024-03-07T02:28:18;64.47;;;34.70;;
8480;SDS011;4277;51.354;6.740;2024-03-07T02:30:44;68.10;;;36.20;;
8480;SDS011;4277;51.354;6.740;2024-03-07T02:33:11;64.90;;;35.83;;
8480;SDS011;4277;51.354;6.740;2024-03-07T02:35:37;66.83;;;35.53;;
8480;SDS011;4277;51.354;6.740;2024-03-07T02:38:03;68.20;;;36.47;;
8480;SDS011;4277;51.354;6.740;2024-03-07T02:40:30;63.43;;;35.37;;
8480;SDS011;4277;51.354;6.740;2024-03-07T02:42:56;65.50;;;33.27;;
8480;SDS011;4277;51.354;6.740;2024-03-07T02:45:22;67.57;;;34.70;;
8480;SDS011;4277;51.354;6.740;2024-03-07T02:47:48;63.30;;;35.63;;
8480;SDS011;4277;51.354;6.740;2024-03-07T02:50:14;66.83;;;34.77;;
8480;SDS011;4277;51.354;6.740;2024-03-07T02:52:40;69.10;;;35.73;;
8480;SDS011;4277;51.354;6.740;2024-03-07T02:55:06;59.10;;;33.40;;
8480;SDS011;4277;51.354;6.740;2024-03-07T02:57:35;68.60;;;36.47;;
8480;SDS011;4277;51.354;6.740;2024-03-07T03:00:02;59.60;;;33.83;;
8480;SDS011;4277;51.354;6.740;2024-03-07T03:02:28;69.27;;;36.70;;
8480;SDS011;4277;51.354;6.740;2024-03-07T03:04:54;65.13;;;34.80;;
8480;SDS011;4277;51.354;6.740;2024-03-07T03:07:20;62.07;;;34.10;;
8480;SDS011;4277;51.354;6.740;2024-03-07T03:09:46;67.60;;;37.07;;
8480;SDS011;4277;51.354;6.740;2024-03-07T03:12:12;64.83;;;35.53;;
8480;SDS011;4277;51.354;6.740;2024-03-07T03:14:38;59.67;;;34.03;;
8480;SDS011;4277;51.354;6.740;2024-03-07T03:17:04;76.37;;;36.27;;
8480;SDS011;4277;51.354;6.740;2024-03-07T03:19:33;57.30;;;32.80;;
8480;SDS011;4277;51.354;6.740;2024-03-07T03:22:01;76.50;;;37.07;;
8480;SDS011;4277;51.354;6.740;2024-03-07T03:24:28;60.63;;;35.80;;
8480;SDS011;4277;51.354;6.740;2024-03-07T03:26:54;62.33;;;35.17;;
8480;SDS011;4277;51.354;6.740;2024-03-07T03:29:20;67.33;;;36.53;;
8480;SDS011;4277;51.354;6.740;2024-03-07T03:31:46;66.23;;;36.40;;
8480;SDS011;4277;51.354;6.740;2024-03-07T03:34:12;73.37;;;39.07;;
8480;SDS011;4277;51.354;6.740;2024-03-07T03:36:38;72.10;;;38.73;;
8480;SDS011;4277;51.354;6.740;2024-03-07T03:39:04;68.07;;;37.33;;
8480;SDS011;4277;51.354;6.740;2024-03-07T03:41:31;70.27;;;39.00;;
8480;SDS011;4277;51.354;6.740;2024-03-07T03:43:57;72.57;;;39.20;;
8480;SDS011;4277;51.354;6.740;2024-03-07T03:46:23;73.93;;;39.10;;
8480;SDS011;4277;51.354;6.740;2024-03-07T03:48:49;68.57;;;37.93;;
8480;SDS011;4277;51.354;6.740;2024-03-07T03:51:15;76.97;;;40.50;;
8480;SDS011;4277;51.354;6.740;2024-03-07T03:53:41;77.00;;;39.30;;
8480;SDS011;4277;51.354;6.740;2024-03-07T03:56:09;76.13;;;40.03;;
8480;SDS011;4277;51.354;6.740;2024-03-07T03:58:37;72.17;;;38.97;;
8480;SDS011;4277;51.354;6.740;2024-03-07T04:01:03;71.03;;;38.57;;
8480;SDS011;4277;51.354;6.740;2024-03-07T04:03:29;74.20;;;38.07;;
8480;SDS011;4277;51.354;6.740;2024-03-07T04:05:56;75.37;;;40.00;;
8480;SDS011;4277;51.354;6.740;2024-03-07T04:08:22;73.10;;;38.80;;
8480;SDS011;4277;51.354;6.740;2024-03-07T04:10:48;75.87;;;39.67;;
8480;SDS011;4277;51.354;6.740;2024-03-07T04:13:14;76.83;;;40.40;;
8480;SDS011;4277;51.354;6.740;2024-03-07T04:15:40;77.77;;;41.10;;
8480;SDS011;4277;51.354;6.740;2024-03-07T04:18:06;79.40;;;39.03;;
8480;SDS011;4277;51.354;6.740;2024-03-07T04:20:32;77.40;;;40.77;;
8480;SDS011;4277;51.354;6.740;2024-03-07T04:22:58;63.77;;;37.13;;
8480;SDS011;4277;51.354;6.740;2024-03-07T04:25:24;70.33;;;38.83;;
8480;SDS011;4277;51.354;6.740;2024-03-07T04:27:50;63.10;;;34.27;;
8480;SDS011;4277;51.354;6.740;2024-03-07T04:30:16;67.13;;;34.37;;
8480;SDS011;4277;51.354;6.740;2024-03-07T04:32:42;58.03;;;33.70;;
8480;SDS011;4277;51.354;6.740;2024-03-07T04:35:08;67.83;;;38.13;;
8480;SDS011;4277;51.354;6.740;2024-03-07T04:37:35;62.23;;;34.50;;
8480;SDS011;4277;51.354;6.740;2024-03-07T04:40:03;65.73;;;35.83;;
8480;SDS011;4277;51.354;6.740;2024-03-07T04:42:29;60.17;;;32.47;;
8480;SDS011;4277;51.354;6.740;2024-03-07T04:44:55;64.37;;;36.43;;
8480;SDS011;4277;51.354;6.740;2024-03-07T04:47:21;61.53;;;34.73;;
8480;SDS011;4277;51.354;6.740;2024-03-07T04:49:47;53.17;;;30.70;;
8480;SDS011;4277;51.354;6.740;2024-03-07T04:52:13;59.63;;;33.70;;
8480;SDS011;4277;51.354;6.740;2024-03-07T04:54:39;56.50;;;32.70;;
8480;SDS011;4277;51.354;6.740;2024-03-07T04:57:05;60.13;;;34.53;;
8480;SDS011;4277;51.354;6.740;2024-03-07T04:59:31;57.47;;;33.17;;
8480;SDS011;4277;51.354;6.740;2024-03-07T05:01:57;55.70;;;32.87;;
8480;SDS011;4277;51.354;6.740;2024-03-07T05:04:23;55.53;;;31.93;;
8480;SDS011;4277;51.354;6.740;2024-03-07T05:06:49;65.47;;;35.20;;
8480;SDS011;4277;51.354;6.740;2024-03-07T05:09:15;62.87;;;36.13;;
8480;SDS011;4277;51.354;6.740;2024-03-07T05:11:48;62.40;;;34.97;;
8480;SDS011;4277;51.354;6.740;2024-03-07T05:14:14;63.40;;;35.57;;
8480;SDS011;4277;51.354;6.740;2024-03-07T05:16:41;61.20;;;34.43;;
8480;SDS011;4277;51.354;6.740;2024-03-07T05:19:08;58.43;;;34.03;;
8480;SDS011;4277;51.354;6.740;2024-03-07T05:21:34;60.10;;;34.97;;
8480;SDS011;4277;51.354;6.740;2024-03-07T05:24:00;62.30;;;35.17;;
8480;SDS011;4277;51.354;6.740;2024-03-07T05:26:27;62.70;;;34.57;;
8480;SDS011;4277;51.354;6.740;2024-03-07T05:28:54;64.33;;;35.40;;
8480;SDS011;4277;51.354;6.740;2024-03-07T05:31:20;67.53;;;35.57;;
8480;SDS011;4277;51.354;6.740;2024-03-07T05:33:47;61.23;;;35.73;;
8480;SDS011;4277;51.354;6.740;2024-03-07T05:36:13;55.80;;;32.70;;
8480;SDS011;4277;51.354;6.740;2024-03-07T05:38:40;63.97;;;37.20;;
8480;SDS011;4277;51.354;6.740;2024-03-07T05:41:08;62.33;;;35.13;;
8480;SDS011;4277;51.354;6.740;2024-03-07T05:43:35;67.33;;;35.77;;
8480;SDS011;4277;51.354;6.740;2024-03-07T05:46:01;65.53;;;35.97;;
8480;SDS011;4277;51.354;6.740;2024-03-07T05:48:27;66.57;;;36.17;;
8480;SDS011;4277;51.354;6.740;2024-03-07T05:50:53;61.10;;;35.67;;
8480;SDS011;4277;51.354;6.740;2024-03-07T05:53:19;59.73;;;34.30;;
8480;SDS011;4277;51.354;6.740;2024-03-07T05:55:45;66.10;;;35.20;;
8480;SDS011;4277;51.354;6.740;2024-03-07T05:58:11;60.43;;;33.27;;
8480;SDS011;4277;51.354;6.740;2024-03-07T06:00:37;65.43;;;35.30;;
8480;SDS011;4277;51.354;6.740;2024-03-07T06:03:04;59.07;;;33.80;;
8480;SDS011;4277;51.354;6.740;2024-03-07T06:05:31;55.73;;;32.33;;
8480;SDS011;4277;51.354;6.740;2024-03-07T06:07:57;60.87;;;34.67;;
8480;SDS011;4277;51.354;6.740;2024-03-07T06:10:23;60.77;;;34.57;;
8480;SDS011;4277;51.354;6.740;2024-03-07T06:12:52;65.43;;;34.47;;
8480;SDS011;4277;51.354;6.740;2024-03-07T06:15:18;65.87;;;35.53;;
8480;SDS011;4277;51.354;6.740;2024-03-07T06:17:45;55.63;;;33.23;;
8480;SDS011;4277;51.354;6.740;2024-03-07T06:20:12;60.93;;;33.07;;
8480;SDS011;4277;51.354;6.740;2024-03-07T06:22:50;60.87;;;32.53;;
8480;SDS011;4277;51.354;6.740;2024-03-07T06:25:17;62.60;;;35.60;;
8480;SDS011;4277;51.354;6.740;2024-03-07T06:27:59;65.37;;;34.47;;
8480;SDS011;4277;51.354;6.740;2024-03-07T06:30:33;61.70;;;35.07;;
8480;SDS011;4277;51.354;6.740;2024-03-07T06:32:59;69.87;;;36.33;;
8480;SDS011;4277;51.354;6.740;2024-03-07T06:35:25;68.00;;;36.87;;
8480;SDS011;4277;51.354;6.740;2024-03-07T06:37:51;61.87;;;35.47;;
8480;SDS011;4277;51.354;6.740;2024-03-07T06:40:17;61.87;;;35.70;;
8480;SDS011;4277;51.354;6.740;2024-03-07T06:42:47;64.00;;;35.77;;
8480;SDS011;4277;51.354;6.740;2024-03-07T06:45:13;63.23;;;35.27;;
8480;SDS011;4277;51.354;6.740;2024-03-07T06:47:39;62.50;;;35.93;;
8480;SDS011;4277;51.354;6.740;2024-03-07T06:50:06;67.07;;;36.60;;
8480;SDS011;4277;51.354;6.740;2024-03-07T06:52:34;63.07;;;36.13;;
8480;SDS011;4277;51.354;6.740;2024-03-07T06:55:01;60.83;;;34.23;;
8480;SDS011;4277;51.354;6.740;2024-03-07T06:57:28;58.67;;;35.30;;
8480;SDS011;4277;51.354;6.740;2024-03-07T06:59:54;62.97;;;35.03;;
8480;SDS011;4277;51.354;6.740;2024-03-07T07:02:20;58.00;;;34.77;;
8480;SDS011;4277;51.354;6.740;2024-03-07T07:04:46;55.33;;;33.90;;
8480;SDS011;4277;51.354;6.740;2024-03-07T07:07:13;61.17;;;34.30;;
8480;SDS011;4277;51.354;6.740;2024-03-07T07:09:39;56.07;;;34.40;;
8480;SDS011;4277;51.354;6.740;2024-03-07T07:12:05;57.73;;;34.20;;
8480;SDS011;4277;51.354;6.740;2024-03-07T07:14:33;60.27;;;35.17;;
8480;SDS011;4277;51.354;6.740;2024-03-07T07:17:01;58.97;;;33.73;;
8480;SDS011;4277;51.354;6.740;2024-03-07T07:19:27;182.20;;;42.93;;
8480;SDS011;4277;51.354;6.740;2024-03-07T07:21:53;65.07;;;37.67;;
8480;SDS011;4277;51.354;6.740;2024-03-07T07:24:19;60.23;;;37.33;;
8480;SDS011;4277;51.354;6.740;2024-03-07T07:26:48;60.40;;;35.90;;
8480;SDS011;4277;51.354;6.740;2024-03-07T07:29:15;58.53;;;36.00;;
8480;SDS011;4277;51.354;6.740;2024-03-07T07:31:41;59.87;;;35.93;;
8480;SDS011;4277;51.354;6.740;2024-03-07T07:34:07;58.90;;;34.33;;
8480;SDS011;4277;51.354;6.740;2024-03-07T07:36:33;59.17;;;35.20;;
8480;SDS011;4277;51.354;6.740;2024-03-07T07:38:59;54.40;;;35.47;;
8480;SDS011;4277;51.354;6.740;2024-03-07T07:41:25;53.63;;;33.23;;
8480;SDS011;4277;51.354;6.740;2024-03-07T07:43:51;59.30;;;35.37;;
8480;SDS011;4277;51.354;6.740;2024-03-07T07:46:17;53.27;;;33.40;;
8480;SDS011;4277;51.354;6.740;2024-03-07T07:48:43;52.77;;;33.80;;
8480;SDS011;4277;51.354;6.740;2024-03-07T07:51:09;48.70;;;32.40;;
8480;SDS011;4277;51.354;6.740;2024-03-07T07:53:35;49.90;;;31.63;;
8480;SDS011;4277;51.354;6.740;2024-03-07T07:56:00;54.40;;;32.87;;
8480;SDS011;4277;51.354;6.740;2024-03-07T07:58:26;48.73;;;31.43;;
8480;SDS011;4277;51.354;6.740;2024-03-07T08:00:52;50.00;;;30.80;;
8480;SDS011;4277;51.354;6.740;2024-03-07T08:03:18;46.23;;;30.33;;
8480;SDS011;4277;51.354;6.740;2024-03-07T08:05:47;46.60;;;31.90;;
8480;SDS011;4277;51.354;6.740;2024-03-07T08:08:13;47.87;;;31.80;;
8480;SDS011;4277;51.354;6.740;2024-03-07T08:10:41;46.23;;;30.50;;
8480;SDS011;4277;51.354;6.740;2024-03-07T08:13:07;46.67;;;31.23;;
8480;SDS011;4277;51.354;6.740;2024-03-07T08:15:35;46.03;;;30.50;;
8480;SDS011;4277;51.354;6.740;2024-03-07T08:18:01;43.93;;;29.47;;
8480;SDS011;4277;51.354;6.740;2024-03-07T08:20:33;46.87;;;29.40;;
8480;SDS011;4277;51.354;6.740;2024-03-07T08:23:00;43.00;;;28.97;;
8480;SDS011;4277;51.354;6.740;2024-03-07T08:25:26;39.27;;;27.57;;
8480;SDS011;4277;51.354;6.740;2024-03-07T08:27:54;43.27;;;28.43;;
8480;SDS011;4277;51.354;6.740;2024-03-07T08:30:21;45.30;;;29.00;;
8480;SDS011;4277;51.354;6.740;2024-03-07T08:32:51;40.13;;;28.47;;
8480;SDS011;4277;51.354;6.740;2024-03-07T08:35:17;43.63;;;27.97;;
8480;SDS011;4277;51.354;6.740;2024-03-07T08:37:47;39.47;;;27.97;;
8480;SDS011;4277;51.354;6.740;2024-03-07T08:40:18;37.53;;;26.30;;
8480;SDS011;4277;51.354;6.740;2024-03-07T08:42:48;37.97;;;26.70;;
8480;SDS011;4277;51.354;6.740;2024-03-07T08:45:17;36.20;;;25.93;;
8480;SDS011;4277;51.354;6.740;2024-03-07T08:47:47;38.77;;;25.30;;
8480;SDS011;4277;51.354;6.740;2024-03-07T08:50:13;31.90;;;24.23;;
8480;SDS011;4277;51.354;6.740;2024-03-07T08:52:39;35.97;;;26.03;;
8480;SDS011;4277;51.354;6.740;2024-03-07T08:55:06;34.90;;;24.13;;
8480;SDS011;4277;51.354;6.740;2024-03-07T08:57:36;34.27;;;23.87;;
8480;SDS011;4277;51.354;6.740;2024-03-07T09:00:05;30.73;;;22.57;;
8480;SDS011;4277;51.354;6.740;2024-03-07T09:02:36;33.73;;;24.00;;
8480;SDS011;4277;51.354;6.740;2024-03-07T09:05:02;31.10;;;22.20;;
8480;SDS011;4277;51.354;6.740;2024-03-07T09:07:28;28.13;;;20.70;;
8480;SDS011;4277;51.354;6.740;2024-03-07T09:09:54;31.90;;;21.33;;
8480;SDS011;4277;51.354;6.740;2024-03-07T09:12:20;27.53;;;20.50;;
8480;SDS011;4277;51.354;6.740;2024-03-07T09:14:46;27.50;;;20.60;;
8480;SDS011;4277;51.354;6.740;2024-03-07T09:17:13;28.17;;;19.90;;
8480;SDS011;4277;51.354;6.740;2024-03-07T09:19:39;26.33;;;19.50;;
8480;SDS011;4277;51.354;6.740;2024-03-07T09:22:06;24.03;;;18.43;;
8480;SDS011;4277;51.354;6.740;2024-03-07T09:24:33;22.93;;;17.57;;
8480;SDS011;4277;51.354;6.740;2024-03-07T09:26:59;24.13;;;18.00;;
8480;SDS011;4277;51.354;6.740;2024-03-07T09:29:25;24.13;;;18.03;;
8480;SDS011;4277;51.354;6.740;2024-03-07T09:31:52;24.87;;;17.53;;
8480;SDS011;4277;51.354;6.740;2024-03-07T09:34:19;23.03;;;17.20;;
8480;SDS011;4277;51.354;6.740;2024-03-07T09:36:48;20.93;;;15.80;;
8480;SDS011;4277;51.354;6.740;2024-03-07T09:39:14;22.93;;;17.20;;
8480;SDS011;4277;51.354;6.740;2024-03-07T09:41:40;23.10;;;17.27;;
8480;SDS011;4277;51.354;6.740;2024-03-07T09:44:08;23.80;;;16.27;;
8480;SDS011;4277;51.354;6.740;2024-03-07T09:46:37;21.63;;;16.00;;
8480;SDS011;4277;51.354;6.740;2024-03-07T09:49:04;23.03;;;16.27;;
8480;SDS011;4277;51.354;6.740;2024-03-07T09:51:31;22.37;;;16.70;;
8480;SDS011;4277;51.354;6.740;2024-03-07T09:53:57;20.97;;;15.87;;
8480;SDS011;4277;51.354;6.740;2024-03-07T09:56:24;20.67;;;16.20;;
8480;SDS011;4277;51.354;6.740;2024-03-07T09:58:51;19.67;;;15.33;;
8480;SDS011;4277;51.354;6.740;2024-03-07T10:01:18;18.83;;;15.30;;
8480;SDS011;4277;51.354;6.740;2024-03-07T10:03:45;18.07;;;14.43;;
8480;SDS011;4277;51.354;6.740;2024-03-07T10:06:12;19.93;;;14.80;;
8480;SDS011;4277;51.354;6.740;2024-03-07T10:08:39;20.57;;;15.50;;
8480;SDS011;4277;51.354;6.740;2024-03-07T10:11:05;21.23;;;15.27;;
8480;SDS011;4277;51.354;6.740;2024-03-07T10:13:33;20.57;;;15.80;;
8480;SDS011;4277;51.354;6.740;2024-03-07T10:16:00;22.63;;;16.73;;
8480;SDS011;4277;51.354;6.740;2024-03-07T10:18:26;22.03;;;16.20;;
8480;SDS011;4277;51.354;6.740;2024-03-07T10:20:55;21.90;;;16.50;;
8480;SDS011;4277;51.354;6.740;2024-03-07T10:23:24;22.23;;;16.60;;
8480;SDS011;4277;51.354;6.740;2024-03-07T10:25:50;19.70;;;15.83;;
8480;SDS011;4277;51.354;6.740;2024-03-07T10:28:18;21.70;;;16.17;;
8480;SDS011;4277;51.354;6.740;2024-03-07T10:30:46;21.37;;;15.87;;
8480;SDS011;4277;51.354;6.740;2024-03-07T10:33:15;19.77;;;14.90;;
8480;SDS011;4277;51.354;6.740;2024-03-07T10:35:41;20.23;;;15.70;;
8480;SDS011;4277;51.354;6.740;2024-03-07T10:38:08;20.20;;;14.70;;
8480;SDS011;4277;51.354;6.740;2024-03-07T10:40:36;22.17;;;16.27;;
8480;SDS011;4277;51.354;6.740;2024-03-07T10:43:06;20.67;;;14.90;;
8480;SDS011;4277;51.354;6.740;2024-03-07T10:45:35;20.23;;;15.43;;
8480;SDS011;4277;51.354;6.740;2024-03-07T10:48:03;20.67;;;15.93;;
8480;SDS011;4277;51.354;6.740;2024-03-07T10:58:33;20.20;;;15.63;;
8480;SDS011;4277;51.354;6.740;2024-03-07T11:01:01;19.90;;;15.83;;
8480;SDS011;4277;51.354;6.740;2024-03-07T11:03:34;20.53;;;15.63;;
8480;SDS011;4277;51.354;6.740;2024-03-07T11:06:01;22.03;;;16.50;;
8480;SDS011;4277;51.354;6.740;2024-03-07T11:08:32;21.67;;;15.37;;
8480;SDS011;4277;51.354;6.740;2024-03-07T11:10:58;20.90;;;15.20;;
8480;SDS011;4277;51.354;6.740;2024-03-07T11:13:24;19.07;;;14.90;;
8480;SDS011;4277;51.354;6.740;2024-03-07T11:15:51;19.60;;;15.33;;
8480;SDS011;4277;51.354;6.740;2024-03-07T11:18:18;21.77;;;15.27;;
8480;SDS011;4277;51.354;6.740;2024-03-07T11:20:45;18.67;;;14.03;;
8480;SDS011;4277;51.354;6.740;2024-03-07T11:23:24;19.57;;;15.00;;
8480;SDS011;4277;51.354;6.740;2024-03-07T11:26:04;22.27;;;16.03;;
8480;SDS011;4277;51.354;6.740;2024-03-07T11:28:42;18.60;;;15.00;;
8480;SDS011;4277;51.354;6.740;2024-03-07T11:36:42;17.90;;;14.10;;
8480;SDS011;4277;51.354;6.740;2024-03-07T11:39:22;18.33;;;14.83;;
8480;SDS011;4277;51.354;6.740;2024-03-07T11:41:56;18.33;;;14.57;;
8480;SDS011;4277;51.354;6.740;2024-03-07T11:44:22;19.83;;;15.00;;
8480;SDS011;4277;51.354;6.740;2024-03-07T11:46:48;18.27;;;14.20;;
8480;SDS011;4277;51.354;6.740;2024-03-07T11:49:14;17.83;;;14.20;;
8480;SDS011;4277;51.354;6.740;2024-03-07T11:51:40;20.70;;;14.27;;
8480;SDS011;4277;51.354;6.740;2024-03-07T11:54:06;20.63;;;14.70;;
8480;SDS011;4277;51.354;6.740;2024-03-07T11:56:32;20.60;;;15.03;;
8480;SDS011;4277;51.354;6.740;2024-03-07T11:58:58;19.17;;;14.60;;
8480;SDS011;4277;51.354;6.740;2024-03-07T12:01:27;20.43;;;14.67;;
8480;SDS011;4277;51.354;6.740;2024-03-07T12:03:55;18.30;;;14.57;;
8480;SDS011;4277;51.354;6.740;2024-03-07T12:06:22;18.03;;;13.80;;
8480;SDS011;4277;51.354;6.740;2024-03-07T12:08:48;20.33;;;14.63;;
8480;SDS011;4277;51.354;6.740;2024-03-07T12:11:14;17.47;;;14.77;;
8480;SDS011;4277;51.354;6.740;2024-03-07T12:13:41;17.97;;;14.13;;
8480;SDS011;4277;51.354;6.740;2024-03-07T12:16:07;18.80;;;14.33;;
8480;SDS011;4277;51.354;6.740;2024-03-07T12:18:33;18.17;;;14.10;;
8480;SDS011;4277;51.354;6.740;2024-03-07T12:21:00;19.13;;;14.47;;
8480;SDS011;4277;51.354;6.740;2024-03-07T12:23:31;18.40;;;14.87;;
8480;SDS011;4277;51.354;6.740;2024-03-07T12:26:01;16.90;;;14.00;;
8480;SDS011;4277;51.354;6.740;2024-03-07T12:28:27;18.57;;;14.23;;
8480;SDS011;4277;51.354;6.740;2024-03-07T12:30:58;21.13;;;14.70;;
8480;SDS011;4277;51.354;6.740;2024-03-07T12:33:27;17.90;;;14.63;;
8480;SDS011;4277;51.354;6.740;2024-03-07T12:35:54;17.20;;;13.87;;
8480;SDS011;4277;51.354;6.740;2024-03-07T12:38:30;18.53;;;15.57;;
8480;SDS011;4277;51.354;6.740;2024-03-07T12:41:09;18.53;;;15.37;;
8480;SDS011;4277;51.354;6.740;2024-03-07T12:43:41;18.33;;;14.93;;
8480;SDS011;4277;51.354;6.740;2024-03-07T12:46:07;21.97;;;15.70;;
8480;SDS011;4277;51.354;6.740;2024-03-07T12:48:36;17.53;;;15.07;;
8480;SDS011;4277;51.354;6.740;2024-03-07T12:51:03;19.33;;;14.63;;
8480;SDS011;4277;51.354;6.740;2024-03-07T12:53:30;21.30;;;15.10;;
8480;SDS011;4277;51.354;6.740;2024-03-07T12:55:56;19.50;;;14.40;;
8480;SDS011;4277;51.354;6.740;2024-03-07T12:58:22;18.07;;;14.03;;
8480;SDS011;4277;51.354;6.740;2024-03-07T13:00:51;18.73;;;14.77;;
8480;SDS011;4277;51.354;6.740;2024-03-07T13:03:17;18.30;;;15.23;;
8480;SDS011;4277;51.354;6.740;2024-03-07T13:05:43;18.23;;;14.93;;
8480;SDS011;4277;51.354;6.740;2024-03-07T13:08:09;16.73;;;14.47;;
8480;SDS011;4277;51.354;6.740;2024-03-07T13:10:42;20.57;;;16.03;;
8480;SDS011;4277;51.354;6.740;2024-03-07T13:13:08;18.30;;;15.07;;
8480;SDS011;4277;51.354;6.740;2024-03-07T13:15:37;17.40;;;14.33;;
8480;SDS011;4277;51.354;6.740;2024-03-07T13:18:04;19.40;;;15.43;;
8480;SDS011;4277;51.354;6.740;2024-03-07T13:20:30;19.10;;;15.30;;
8480;SDS011;4277;51.354;6.740;2024-03-07T13:22:56;21.03;;;15.57;;
8480;SDS011;4277;51.354;6.740;2024-03-07T13:25:24;18.13;;;15.03;;
8480;SDS011;4277;51.354;6.740;2024-03-07T13:28:03;19.70;;;16.10;;
8480;SDS011;4277;51.354;6.740;2024-03-07T13:30:34;17.30;;;14.97;;
8480;SDS011;4277;51.354;6.740;2024-03-07T13:33:03;19.00;;;15.03;;
8480;SDS011;4277;51.354;6.740;2024-03-07T13:35:30;18.80;;;15.40;;
8480;SDS011;4277;51.354;6.740;2024-03-07T13:37:56;20.70;;;15.80;;
8480;SDS011;4277;51.354;6.740;2024-03-07T13:40:23;19.37;;;15.33;;
8480;SDS011;4277;51.354;6.740;2024-03-07T13:42:50;17.33;;;14.37;;
8480;SDS011;4277;51.354;6.740;2024-03-07T13:45:20;19.63;;;15.47;;
8480;SDS011;4277;51.354;6.740;2024-03-07T13:47:46;17.00;;;14.73;;
8480;SDS011;4277;51.354;6.740;2024-03-07T13:50:17;15.90;;;14.20;;
8480;SDS011;4277;51.354;6.740;2024-03-07T13:52:47;16.87;;;14.33;;
8480;SDS011;4277;51.354;6.740;2024-03-07T13:55:47;19.63;;;14.80;;
8480;SDS011;4277;51.354;6.740;2024-03-07T13:58:18;15.70;;;13.73;;
8480;SDS011;4277;51.354;6.740;2024-03-07T14:00:47;15.53;;;13.13;;
8480;SDS011;4277;51.354;6.740;2024-03-07T14:06:04;16.23;;;13.73;;
8480;SDS011;4277;51.354;6.740;2024-03-07T14:27:59;13.57;;;11.17;;
8480;SDS011;4277;51.354;6.740;2024-03-07T14:32:48;13.80;;;11.53;;
8480;SDS011;4277;51.354;6.740;2024-03-07T14:35:31;13.27;;;10.80;;
8480;SDS011;4277;51.354;6.740;2024-03-07T14:38:03;14.60;;;11.03;;
8480;SDS011;4277;51.354;6.740;2024-03-07T14:40:32;16.13;;;10.73;;
8480;SDS011;4277;51.354;6.740;2024-03-07T14:42:58;14.73;;;11.43;;
8480;SDS011;4277;51.354;6.740;2024-03-07T14:45:29;12.07;;;10.30;;
8480;SDS011;4277;51.354;6.740;2024-03-07T14:47:56;11.30;;;9.63;;
8480;SDS011;4277;51.354;6.740;2024-03-07T14:50:22;11.40;;;9.50;;
8480;SDS011;4277;51.354;6.740;2024-03-07T14:52:49;10.17;;;9.03;;
8480;SDS011;4277;51.354;6.740;2024-03-07T14:55:15;11.03;;;8.93;;
8480;SDS011;4277;51.354;6.740;2024-03-07T14:57:43;10.77;;;8.53;;
8480;SDS011;4277;51.354;6.740;2024-03-07T15:00:10;10.13;;;8.37;;
8480;SDS011;4277;51.354;6.740;2024-03-07T15:02:47;8.67;;;7.77;;
8480;SDS011;4277;51.354;6.740;2024-03-07T15:05:16;9.10;;;7.83;;
8480;SDS011;4277;51.354;6.740;2024-03-07T15:07:45;7.67;;;6.73;;
8480;SDS011;4277;51.354;6.740;2024-03-07T15:10:15;7.17;;;6.13;;
8480;SDS011;4277;51.354;6.740;2024-03-07T15:12:44;7.47;;;6.63;;
8480;SDS011;4277;51.354;6.740;2024-03-07T15:15:11;8.43;;;6.50;;
8480;SDS011;4277;51.354;6.740;2024-03-07T15:17:39;7.10;;;5.93;;
8480;SDS011;4277;51.354;6.740;2024-03-07T15:20:06;6.97;;;6.00;;
8480;SDS011;4277;51.354;6.740;2024-03-07T15:22:39;7.53;;;6.50;;
8480;SDS011;4277;51.354;6.740;2024-03-07T15:25:05;9.20;;;6.47;;
8480;SDS011;4277;51.354;6.740;2024-03-07T15:27:38;8.90;;;6.70;;